ilmateenistus.ee keskkonnaagentuur.ee
EETN Таллинн
FTEO31 EETN 281100
TAF EETN 281128Z 2812/2912 11010KT 9999 SCT040 BECMG 2821/2823 BKN015
    OVC025 TEMPO 2901/2909 BKN007=

METAR EETN 281450Z 06007KT CAVOK 15/11 Q1017 NOSIG=
Таллинн
EEKA Кярдла
FCEO32 EETN 281200
TAF EEKA 281200Z 2813/2819 12012KT 9999 BKN030 BECMG 2814/2816
    BKN013=

METAR EEKA 281450Z 16004KT 9999 BKN040 15/10 Q1016=
Кярдла
EEKE Курессааре
FCEO32 EETN 281400
TAF EEKE 281400Z 2815/2821 10010KT 9999 OVC006 BECMG 2816/2818 6000
    RA OVC010 TEMPO 2818/2821 3000 SHRA BR BKN007 SCT013CB=

METAR EEKE 281450Z 11008KT 9999 OVC006 14/12 Q1016=
Курессааре
EEPU Пярну
METAR EEPU 281450Z NIL=
Пярну
EETU Тарту
METAR COR EETU 281450Z 11006KT 9999 OVC018 13/09 Q1017=
Тарту
EEEI Эмари
METAR EEEI 281450Z 08007KT CAVOK 17/10 Q1017 NOSIG=
Эмари